LGTSLGLM

Guest
Details From LGTS - Thessalonik Makedonia
To LGLM - Limnos
Flight Number -
Tags decoded
Created
Modified
Stats Distance 117 nm / 216 km
Max Altitude 0 ft / 0 m
Waypoints 4
Social Downloads 0
Likes 0
Share VATSIM

Download

Looking for another format? Having issues loading an existing format? Contact us
Advertisement - Login to hide

Notes

Requested: LGTS ARNAS UM603 PEREN LGLM

Route

LGTS ARNAS UM603 PEREN LGLM

ID Type Via Altitude Latitude Longitude Leg Dist Tot Dist Heading (true) Name
O LGTS APT - 0 ft / 0 m 40.51952˚ 22.97202˚ - 0 nm - Thessalonik Makedonia
ARNAS FIX - 0 ft / 0 m 40.52806˚ 23.48056˚ 23 nm 23 nm 89° / 89° -
PEREN FIX UM603 (AWY-HI) 0 ft / 0 m 40.59667˚ 23.96778˚ 22 nm 45 nm 79° / 80° -
O LGLM APT - 0 ft / 0 m 39.91703˚ 25.23635˚ 71 nm 116 nm 125° / 125° Limnos

Altitude Profile

Advertisement - Login to hide

LGTS

Details ICAO LGTS (SKG)
Name Thessalonik Makedonia
Region Greece
Timezone Europe/Athens (UTC+2.0)
Stats Elevation 22 ft / 7 m (AMSL)
Location 40.519522° 22.972017°
Runways 2
Magnetic Variation 4.622° E

METAR

LGTS 141520Z 12003KT CAVOK 12/03 Q1012 NOSIG

Decode

TAF

TAF LGTS 141100Z 1412/1512 VRB03KT 9999 FEW030 PROB30 TEMPO 1502/1508 3000 BR SCT008

Decode

Departure Runways

ID Width Length Bearing (true) Bearing (mag) Surface Threshold Offset Overrun Length
10 164 ft / 50 m 7,990 ft / 2,435 m 103.95° 99.33° Asphalt 0 ft / 0 m 150 ft / 46 m
16 197 ft / 60 m 7,927 ft / 2,416 m 166.35° 161.73° Asphalt 0 ft / 0 m 200 ft / 61 m
28 164 ft / 50 m 7,990 ft / 2,435 m 283.97° 279.35° Asphalt 0 ft / 0 m 150 ft / 46 m
34 197 ft / 60 m 7,927 ft / 2,416 m 346.36° 341.74° Asphalt 0 ft / 0 m 200 ft / 61 m

LGLM

Details ICAO LGLM (LXS)
Name Limnos
Region Greece
Timezone Europe/Athens (UTC+2.0)
Stats Elevation 14 ft / 4 m (AMSL)
Location 39.917028° 25.236348°
Runways 1
Magnetic Variation 4.857° E

METAR

LGLM 141520Z 18004KT 9999 FEW025 14/11 Q1013

Decode

TAF

Not found

Destination Runways

ID Width Length Bearing (true) Bearing (mag) Surface Threshold Offset Overrun Length
04R 148 ft / 45 m 9,842 ft / 3,000 m 43.04° 38.18° Asphalt 0 ft / 0 m 920 ft / 280 m
22L 148 ft / 45 m 9,842 ft / 3,000 m 223.05° 218.19° Asphalt 0 ft / 0 m 920 ft / 280 m

Popular Alternatives